createdAt,value
2023-04-26T00:02:08.724Z,63.56
2023-04-26T00:04:36.587Z,63.68
2023-04-26T00:07:05.900Z,63.85
2023-04-26T00:09:33.799Z,63.83
2023-04-26T00:12:01.877Z,64.18
2023-04-26T00:14:29.546Z,64.61
2023-04-26T00:16:57.265Z,63.94
2023-04-26T00:19:25.143Z,64.72
2023-04-26T00:21:52.768Z,64.53
2023-04-26T00:24:22.153Z,64.67
2023-04-26T00:26:49.804Z,64.97
2023-04-26T00:29:17.563Z,64.67
2023-04-26T00:31:45.306Z,64.85
2023-04-26T00:34:13.033Z,64.86
2023-04-26T00:36:40.978Z,64.23
2023-04-26T00:39:08.762Z,64.86
2023-04-26T00:41:37.932Z,64.41
2023-04-26T00:44:06.281Z,64.50
2023-04-26T00:46:34.009Z,64.68
2023-04-26T00:49:01.668Z,64.73
2023-04-26T00:51:29.445Z,64.70
2023-04-26T00:53:57.886Z,64.83
2023-04-26T00:56:26.362Z,64.78
2023-04-26T00:58:55.623Z,64.77
2023-04-26T01:01:23.349Z,64.43
2023-04-26T01:03:51.175Z,64.91
2023-04-26T01:06:19.075Z,64.83
2023-04-26T01:08:46.730Z,64.92
2023-04-26T01:11:14.925Z,65.36
2023-04-26T01:13:43.223Z,65.55
2023-04-26T01:16:12.468Z,65.43
2023-04-26T01:18:40.112Z,65.54
2023-04-26T01:21:08.291Z,65.76
2023-04-26T01:23:37.450Z,66.08
2023-04-26T01:26:05.096Z,66.04
2023-04-26T01:28:32.726Z,66.04
2023-04-26T01:31:00.490Z,66.50
2023-04-26T01:33:28.126Z,66.61
2023-04-26T01:35:55.831Z,66.21
2023-04-26T01:38:23.516Z,66.26
2023-04-26T01:40:52.513Z,65.94
2023-04-26T01:43:23.009Z,65.68
2023-04-26T01:45:50.695Z,65.79
2023-04-26T01:48:18.388Z,66.17
2023-04-26T01:50:46.077Z,65.93
2023-04-26T01:53:13.745Z,66.15
2023-04-26T01:55:41.477Z,65.92
2023-04-26T01:58:10.539Z,66.31
2023-04-26T02:00:39.114Z,66.50
2023-04-26T02:03:06.950Z,66.55
2023-04-26T02:05:34.685Z,66.40
2023-04-26T02:08:02.298Z,66.25
2023-04-26T02:10:29.955Z,66.25
2023-04-26T02:12:57.607Z,66.47
2023-04-26T02:15:26.698Z,66.87
2023-04-26T02:17:55.776Z,67.19
2023-04-26T02:20:23.737Z,67.37
2023-04-26T02:22:51.427Z,67.00
2023-04-26T02:25:19.110Z,67.29
2023-04-26T02:27:46.738Z,67.11
2023-04-26T02:30:14.880Z,67.13
2023-04-26T02:32:44.157Z,66.76
2023-04-26T02:35:11.831Z,66.71
2023-04-26T02:37:39.563Z,66.80
2023-04-26T02:40:10.939Z,66.89
2023-04-26T02:42:38.635Z,66.85
2023-04-26T02:45:07.855Z,67.26
2023-04-26T02:47:36.811Z,67.13
2023-04-26T02:50:07.484Z,67.21
2023-04-26T02:52:35.246Z,67.68
2023-04-26T02:55:03.957Z,67.60
2023-04-26T02:57:31.789Z,67.92
2023-04-26T02:59:59.716Z,67.83
2023-04-26T03:02:27.682Z,67.89
2023-04-26T03:04:55.416Z,68.39
2023-04-26T03:07:24.512Z,68.52
2023-04-26T03:09:52.262Z,68.52
2023-04-26T03:12:19.923Z,68.59
2023-04-26T03:14:47.559Z,68.38
2023-04-26T03:17:15.161Z,68.40
2023-04-26T03:19:42.802Z,69.03
2023-04-26T03:22:11.378Z,68.58
2023-04-26T03:24:41.137Z,68.66
2023-04-26T03:27:09.277Z,69.02
2023-04-26T03:29:37.355Z,68.92
2023-04-26T03:32:06.194Z,68.87
2023-04-26T03:34:34.044Z,68.52
2023-04-26T03:37:01.690Z,68.58
2023-04-26T03:39:29.335Z,68.65
2023-04-26T03:41:58.468Z,68.50
2023-04-26T03:44:26.114Z,68.55
2023-04-26T03:46:53.728Z,68.73
2023-04-26T03:49:21.524Z,68.08
2023-04-26T03:51:49.225Z,68.13
2023-04-26T03:54:16.877Z,68.26
2023-04-26T03:56:44.517Z,68.30
2023-04-26T03:59:13.640Z,68.42
2023-04-26T04:01:41.413Z,68.38
2023-04-26T04:04:10.137Z,68.60
2023-04-26T04:06:38.363Z,68.62
2023-04-26T04:09:06.726Z,68.20
2023-04-26T04:11:34.649Z,68.20
2023-04-26T04:14:02.878Z,67.96
2023-04-26T04:16:32.078Z,68.32
2023-04-26T04:18:59.710Z,67.80
2023-04-26T04:21:27.662Z,67.94
2023-04-26T04:23:55.293Z,67.99
2023-04-26T04:26:23.210Z,68.26
2023-04-26T04:28:52.080Z,68.69
2023-04-26T04:31:19.957Z,68.82
2023-04-26T04:33:49.307Z,68.53
2023-04-26T04:36:17.693Z,69.22
2023-04-26T04:38:45.372Z,69.60
2023-04-26T04:41:13.157Z,69.56
2023-04-26T04:43:40.845Z,69.71
2023-04-26T04:46:10.058Z,70.06
2023-04-26T04:48:39.393Z,70.10
2023-04-26T04:51:08.735Z,70.43
2023-04-26T04:53:36.465Z,70.33
2023-04-26T04:56:04.238Z,70.18
2023-04-26T04:58:31.928Z,70.18
2023-04-26T05:01:01.328Z,70.33
2023-04-26T05:03:29.317Z,70.42
2023-04-26T05:05:57.223Z,70.51
2023-04-26T05:08:26.312Z,71.04
2023-04-26T05:10:53.930Z,70.63
2023-04-26T05:13:21.592Z,70.48
2023-04-26T05:15:49.250Z,69.88
2023-04-26T05:18:16.963Z,70.65
2023-04-26T05:20:44.700Z,70.12
2023-04-26T05:23:12.399Z,70.40
2023-04-26T05:25:41.464Z,70.47
2023-04-26T05:28:12.673Z,70.47
2023-04-26T05:30:40.786Z,70.81
2023-04-26T05:33:08.566Z,70.76
2023-04-26T05:35:36.377Z,71.22
2023-04-26T05:38:04.852Z,71.67
2023-04-26T05:40:32.964Z,71.60
2023-04-26T05:43:01.991Z,71.35
2023-04-26T05:45:29.689Z,72.20
2023-04-26T05:47:57.405Z,72.42
2023-04-26T05:50:25.143Z,72.57
2023-04-26T05:52:52.816Z,72.72
2023-04-26T05:55:21.523Z,73.69
2023-04-26T05:57:49.286Z,73.71
2023-04-26T06:00:20.807Z,74.21
2023-04-26T06:02:48.710Z,74.62
2023-04-26T06:05:16.597Z,74.65
2023-04-26T06:07:44.700Z,74.92
2023-04-26T06:10:13.430Z,74.91
2023-04-26T06:12:41.412Z,75.00
2023-04-26T06:15:10.151Z,74.59
2023-04-26T06:17:39.236Z,74.43
2023-04-26T06:20:09.462Z,74.34
2023-04-26T06:22:37.891Z,74.99
2023-04-26T06:25:07.071Z,75.13
2023-04-26T06:27:34.764Z,74.01
2023-04-26T06:30:02.650Z,74.19
2023-04-26T06:32:30.589Z,74.54
2023-04-26T06:34:59.892Z,74.26
2023-04-26T06:37:27.625Z,74.72
2023-04-26T06:39:55.442Z,74.95
2023-04-26T06:42:23.075Z,75.25
2023-04-26T06:44:50.885Z,75.31
2023-04-26T06:47:18.535Z,74.80
2023-04-26T06:49:46.282Z,74.28
2023-04-26T06:52:15.926Z,72.64
2023-04-26T06:54:56.100Z,73.34
2023-04-26T06:57:24.880Z,73.94
2023-04-26T06:59:52.628Z,74.50
2023-04-26T07:02:20.349Z,74.31
2023-04-26T07:04:48.255Z,74.39
2023-04-26T07:07:17.656Z,74.38
2023-04-26T07:09:46.078Z,74.11
2023-04-26T07:12:14.055Z,74.26
2023-04-26T07:14:43.430Z,74.17
2023-04-26T07:17:11.691Z,73.72
2023-04-26T07:19:39.409Z,73.71
2023-04-26T07:22:07.342Z,73.41
2023-04-26T07:24:36.671Z,73.24
2023-04-26T07:27:04.518Z,72.05
2023-04-26T07:29:32.261Z,72.21
2023-04-26T07:31:59.926Z,71.17
2023-04-26T07:34:27.651Z,71.89
2023-04-26T07:36:56.257Z,69.88
2023-04-26T07:39:24.198Z,71.58
2023-04-26T07:41:53.350Z,71.30
2023-04-26T07:44:21.164Z,70.09
2023-04-26T07:46:48.930Z,68.92
2023-04-26T07:49:16.631Z,68.97
2023-04-26T07:51:45.623Z,67.97
2023-04-26T07:54:13.332Z,68.02
2023-04-26T07:56:41.078Z,69.72
2023-04-26T07:59:10.224Z,68.73
2023-04-26T08:01:38.031Z,68.57
2023-04-26T08:04:06.604Z,68.98
2023-04-26T08:06:34.495Z,69.58
2023-04-26T08:09:02.188Z,67.98
2023-04-26T08:11:29.969Z,67.81
2023-04-26T08:13:57.792Z,68.55
2023-04-26T08:16:27.021Z,67.73
2023-04-26T08:18:54.793Z,66.73
2023-04-26T08:21:22.547Z,67.10
2023-04-26T08:23:50.368Z,66.77
2023-04-26T08:26:18.361Z,67.50
2023-04-26T08:28:46.637Z,64.80
2023-04-26T08:31:15.716Z,63.53
2023-04-26T08:33:46.091Z,65.40
2023-04-26T08:36:14.018Z,65.16
2023-04-26T08:38:42.514Z,64.70
2023-04-26T08:41:14.811Z,64.56
2023-04-26T08:43:42.678Z,64.83
2023-04-26T08:46:13.814Z,63.95
2023-04-26T08:48:41.729Z,64.82
2023-04-26T08:51:11.513Z,63.84
2023-04-26T08:53:39.894Z,62.59
2023-04-26T08:56:08.401Z,62.32
2023-04-26T08:58:36.432Z,61.97
2023-04-26T09:01:04.549Z,61.08
2023-04-26T09:03:32.386Z,61.89
2023-04-26T09:06:01.437Z,61.23
2023-04-26T09:08:33.670Z,57.78
2023-04-26T09:11:01.647Z,57.15
2023-04-26T09:13:30.448Z,57.83
2023-04-26T09:15:58.156Z,56.76
2023-04-26T09:18:26.495Z,56.17
2023-04-26T09:21:05.045Z,56.78
2023-04-26T09:23:34.429Z,57.92
2023-04-26T09:26:19.112Z,57.71
2023-04-26T09:28:47.619Z,58.49
2023-04-26T09:31:37.430Z,57.49
2023-04-26T09:34:05.275Z,56.99
2023-04-26T09:36:32.950Z,57.02
2023-04-26T09:39:02.197Z,56.87
2023-04-26T09:41:44.344Z,57.18
2023-04-26T09:44:24.705Z,57.21
2023-04-26T09:47:00.039Z,57.19
2023-04-26T09:49:28.360Z,57.49
2023-04-26T09:52:03.016Z,57.92
2023-04-26T09:54:43.309Z,57.85
2023-04-26T09:57:11.563Z,57.68
2023-04-26T09:59:44.010Z,57.72
2023-04-26T10:02:17.154Z,57.03
2023-04-26T10:04:47.329Z,56.79
2023-04-26T10:07:15.948Z,56.90
2023-04-26T10:09:46.646Z,55.99
2023-04-26T10:12:15.356Z,57.46
2023-04-26T10:14:44.233Z,56.93
2023-04-26T10:17:41.027Z,56.25
2023-04-26T10:20:13.025Z,55.33
2023-04-26T10:22:46.262Z,54.39
2023-04-26T10:25:14.730Z,56.58
2023-04-26T10:27:49.353Z,57.74
2023-04-26T10:30:17.710Z,58.39
2023-04-26T10:33:14.970Z,57.36
2023-04-26T10:36:01.294Z,56.52
2023-04-26T10:38:29.087Z,55.88
2023-04-26T10:40:57.533Z,57.32
2023-04-26T10:43:32.834Z,57.03
2023-04-26T10:46:38.342Z,57.83
2023-04-26T10:49:17.076Z,57.05
2023-04-26T10:52:22.989Z,56.85
2023-04-26T10:54:52.970Z,56.79
2023-04-26T10:57:21.510Z,56.36
2023-04-26T11:00:17.868Z,55.97
2023-04-26T11:03:02.412Z,55.28
2023-04-26T11:05:38.562Z,54.87
2023-04-26T11:08:07.685Z,54.74
2023-04-26T11:10:36.738Z,55.53
2023-04-26T11:13:05.085Z,55.45
2023-04-26T11:15:32.906Z,54.29
2023-04-26T11:18:05.489Z,54.53
2023-04-26T11:20:33.708Z,53.37
2023-04-26T11:23:02.075Z,53.19
2023-04-26T11:25:30.445Z,52.69
2023-04-26T11:28:01.809Z,53.87
2023-04-26T11:30:31.679Z,53.83
2023-04-26T11:33:00.209Z,55.94
2023-04-26T11:35:29.982Z,53.10
2023-04-26T11:38:00.261Z,54.24
2023-04-26T11:40:32.287Z,53.50
2023-04-26T11:43:03.510Z,52.26
2023-04-26T11:45:32.838Z,54.42
2023-04-26T11:48:01.725Z,54.24
2023-04-26T11:50:32.437Z,52.63
2023-04-26T11:53:01.676Z,52.65
2023-04-26T11:55:30.585Z,52.99
2023-04-26T11:57:58.789Z,53.49
2023-04-26T12:00:27.078Z,52.99
2023-04-26T12:02:57.205Z,53.04
2023-04-26T12:05:27.370Z,53.41
2023-04-26T12:07:57.690Z,53.05
2023-04-26T12:10:27.243Z,52.95
2023-04-26T12:12:56.792Z,52.14
2023-04-26T12:15:25.978Z,53.25
2023-04-26T12:18:01.131Z,53.75
2023-04-26T12:20:33.604Z,52.64
2023-04-26T12:23:05.951Z,52.37
2023-04-26T12:25:34.850Z,51.79
2023-04-26T12:28:04.373Z,53.09
2023-04-26T12:30:32.368Z,54.03
2023-04-26T12:33:05.903Z,53.67
2023-04-26T12:35:43.140Z,53.77
2023-04-26T12:38:12.575Z,52.87
2023-04-26T12:40:40.636Z,54.07
2023-04-26T12:43:08.329Z,52.47
2023-04-26T12:45:36.023Z,52.33
2023-04-26T12:48:03.994Z,51.90
2023-04-26T12:50:31.889Z,52.82
2023-04-26T12:52:59.550Z,52.00
2023-04-26T12:55:29.988Z,52.07
2023-04-26T12:57:59.804Z,52.58
2023-04-26T13:00:27.484Z,52.67
2023-04-26T13:02:55.577Z,52.41
2023-04-26T13:05:24.673Z,52.56
2023-04-26T13:07:52.509Z,53.76
2023-04-26T13:10:20.178Z,52.78
2023-04-26T13:12:49.332Z,52.59
2023-04-26T13:15:17.755Z,52.49
2023-04-26T13:17:45.772Z,52.30
2023-04-26T13:20:14.541Z,53.34
2023-04-26T13:22:43.335Z,53.90
2023-04-26T13:25:13.155Z,53.66
2023-04-26T13:27:41.154Z,53.47
2023-04-26T13:30:11.694Z,53.41
2023-04-26T13:32:39.489Z,53.41
2023-04-26T13:35:08.297Z,52.98
2023-04-26T13:37:36.213Z,53.36
2023-04-26T13:40:05.433Z,53.92
2023-04-26T13:42:33.119Z,53.24
2023-04-26T13:45:01.306Z,53.33
2023-04-26T13:47:30.466Z,53.26
2023-04-26T13:49:58.124Z,51.78
2023-04-26T13:52:26.005Z,51.42
2023-04-26T13:54:53.897Z,51.19
2023-04-26T13:57:21.716Z,51.48
2023-04-26T13:59:49.541Z,50.24
2023-04-26T14:02:17.371Z,50.03
2023-04-26T14:04:46.915Z,49.77
2023-04-26T14:07:14.735Z,50.00
2023-04-26T14:09:42.501Z,50.86
2023-04-26T14:12:10.586Z,49.54
2023-04-26T14:14:38.302Z,50.34
2023-04-26T14:17:05.995Z,51.17
2023-04-26T14:19:33.707Z,50.56
2023-04-26T14:22:02.749Z,50.40
2023-04-26T14:24:30.366Z,51.38
2023-04-26T14:26:58.418Z,50.16
2023-04-26T14:29:26.388Z,49.57
2023-04-26T14:31:54.288Z,49.58
2023-04-26T14:34:23.723Z,49.74
2023-04-26T14:36:51.433Z,51.04
2023-04-26T14:39:22.143Z,51.27
2023-04-26T14:41:51.910Z,49.74
2023-04-26T14:44:19.558Z,50.28
2023-04-26T14:46:47.213Z,49.76
2023-04-26T14:49:14.887Z,49.51
2023-04-26T14:51:42.580Z,49.84
2023-04-26T14:54:10.493Z,49.93
2023-04-26T14:56:39.769Z,49.77
2023-04-26T14:59:07.934Z,50.30
2023-04-26T15:01:35.805Z,49.69
2023-04-26T15:04:03.808Z,48.91
2023-04-26T15:06:34.130Z,49.50
2023-04-26T15:09:02.084Z,50.19
2023-04-26T15:11:29.839Z,49.09
2023-04-26T15:13:59.140Z,48.42
2023-04-26T15:16:26.821Z,47.94
2023-04-26T15:18:54.698Z,46.46
2023-04-26T15:21:22.453Z,46.90
2023-04-26T15:23:50.074Z,46.54
2023-04-26T15:26:17.836Z,47.30
2023-04-26T15:28:45.445Z,46.98
2023-04-26T15:31:14.532Z,46.76
2023-04-26T15:33:42.383Z,46.74
2023-04-26T15:36:10.388Z,47.13
2023-04-26T15:38:38.186Z,46.80
2023-04-26T15:41:06.625Z,46.28
2023-04-26T15:43:34.356Z,47.03
2023-04-26T15:46:02.082Z,46.79
2023-04-26T15:48:31.167Z,46.50
2023-04-26T15:50:58.865Z,46.96
2023-04-26T15:53:27.043Z,47.10
2023-04-26T15:55:54.746Z,46.50
2023-04-26T15:58:22.425Z,47.00
2023-04-26T16:00:50.080Z,47.57
2023-04-26T16:03:18.011Z,48.47
2023-04-26T16:05:47.315Z,48.99
2023-04-26T16:08:24.374Z,49.58
2023-04-26T16:11:01.075Z,50.16
2023-04-26T16:13:28.820Z,50.26
2023-04-26T16:15:57.008Z,50.98
2023-04-26T16:18:24.671Z,50.82
2023-04-26T16:20:53.831Z,50.90
2023-04-26T16:23:21.746Z,51.20
2023-04-26T16:25:49.430Z,50.95
2023-04-26T16:28:17.172Z,50.77
2023-04-26T16:30:44.792Z,50.83
2023-04-26T16:33:12.431Z,51.58
2023-04-26T16:35:40.248Z,50.90
2023-04-26T16:38:09.288Z,51.10
2023-04-26T16:40:37.016Z,51.00
2023-04-26T16:43:04.738Z,51.01
2023-04-26T16:45:32.411Z,51.13
2023-04-26T16:48:00.220Z,50.95
2023-04-26T16:50:27.920Z,50.37
2023-04-26T16:52:55.792Z,50.63
2023-04-26T16:55:25.037Z,51.22
2023-04-26T16:57:52.726Z,52.29
2023-04-26T17:00:20.751Z,53.82
2023-04-26T17:02:50.154Z,53.06
2023-04-26T17:07:27.228Z,52.25
2023-04-26T17:09:55.319Z,52.16
2023-04-26T17:12:23.050Z,51.77
2023-04-26T17:14:50.770Z,51.92
2023-04-26T17:17:18.438Z,52.00
2023-04-26T17:19:46.111Z,52.37
2023-04-26T17:22:13.801Z,51.96
2023-04-26T17:24:42.843Z,52.31
2023-04-26T17:27:10.555Z,52.47
2023-04-26T17:29:38.201Z,52.62
2023-04-26T17:32:06.475Z,52.54
2023-04-26T17:34:34.266Z,52.01
2023-04-26T17:37:01.940Z,51.35
2023-04-26T17:39:29.965Z,51.54
2023-04-26T17:41:59.051Z,50.98
2023-04-26T17:44:26.920Z,51.76
2023-04-26T17:46:54.654Z,51.57
2023-04-26T17:49:25.605Z,51.31
2023-04-26T17:51:53.282Z,51.69
2023-04-26T17:54:21.158Z,52.33
2023-04-26T17:56:48.783Z,52.85
2023-04-26T17:59:17.931Z,52.71
2023-04-26T18:01:45.678Z,52.92
2023-04-26T18:04:13.566Z,52.84
2023-04-26T18:06:41.639Z,52.49
2023-04-26T18:09:09.486Z,52.98
2023-04-26T18:11:37.191Z,52.46
2023-04-26T18:14:04.822Z,52.67
2023-04-26T18:16:33.940Z,52.74
2023-04-26T18:19:01.666Z,53.11
2023-04-26T18:21:29.440Z,52.88
2023-04-26T18:23:57.186Z,53.24
2023-04-26T18:26:24.845Z,53.40
2023-04-26T18:28:52.677Z,53.61
2023-04-26T18:31:20.936Z,53.95
2023-04-26T18:33:50.344Z,54.16
2023-04-26T18:36:18.233Z,54.41
2023-04-26T18:38:45.941Z,54.51
2023-04-26T18:41:13.643Z,54.35
2023-04-26T18:43:41.565Z,54.24
2023-04-26T18:46:09.264Z,54.09
2023-04-26T18:48:36.993Z,53.90
2023-04-26T18:51:06.143Z,54.51
2023-04-26T18:53:33.837Z,53.97
2023-04-26T18:56:01.620Z,53.48
2023-04-26T18:58:29.327Z,54.08
2023-04-26T19:00:56.953Z,54.63
2023-04-26T19:03:25.131Z,53.60
2023-04-26T19:05:53.249Z,54.43
2023-04-26T19:08:22.300Z,54.02
2023-04-26T19:10:50.135Z,54.08
2023-04-26T19:13:18.681Z,53.82
2023-04-26T19:15:46.715Z,54.01
2023-04-26T19:18:14.717Z,55.44
2023-04-26T19:20:42.585Z,55.36
2023-04-26T19:23:10.263Z,54.30
2023-04-26T19:25:39.356Z,54.38
2023-04-26T19:28:07.129Z,55.76
2023-04-26T19:30:34.873Z,56.79
2023-04-26T19:33:02.604Z,57.90
2023-04-26T19:35:30.510Z,58.34
2023-04-26T19:37:58.211Z,58.07
2023-04-26T19:40:25.978Z,59.05
2023-04-26T19:42:55.079Z,59.38
2023-04-26T19:45:22.761Z,59.62
2023-04-26T19:47:50.509Z,59.88
2023-04-26T19:50:18.855Z,60.39
2023-04-26T19:52:47.019Z,60.36
2023-04-26T19:55:15.004Z,59.99
2023-04-26T19:57:42.716Z,59.87
2023-04-26T20:00:13.161Z,60.12
2023-04-26T20:02:40.983Z,60.11
2023-04-26T20:05:09.747Z,60.54
2023-04-26T20:07:37.396Z,61.02
2023-04-26T20:10:05.542Z,61.22
2023-04-26T20:12:34.357Z,60.89
2023-04-26T20:15:02.162Z,61.03
2023-04-26T20:17:31.214Z,61.39
2023-04-26T20:19:58.977Z,60.87
2023-04-26T20:22:26.869Z,60.74
2023-04-26T20:24:54.559Z,61.70
2023-04-26T20:27:22.272Z,61.64
2023-04-26T20:29:49.946Z,61.52
2023-04-26T20:32:17.757Z,61.93
2023-04-26T20:34:46.992Z,61.60
2023-04-26T20:37:14.780Z,61.76
2023-04-26T20:39:42.771Z,61.90
2023-04-26T20:42:10.586Z,62.19
2023-04-26T20:44:38.423Z,62.37
2023-04-26T20:47:06.134Z,62.22
2023-04-26T20:49:33.726Z,62.41
2023-04-26T20:52:02.868Z,62.72
2023-04-26T20:54:31.217Z,62.63
2023-04-26T20:56:58.895Z,63.02
2023-04-26T20:59:27.007Z,63.16
2023-04-26T21:01:54.881Z,63.03
2023-04-26T21:04:22.854Z,62.76
2023-04-26T21:06:51.076Z,63.03
2023-04-26T21:09:20.107Z,63.55
2023-04-26T21:11:47.827Z,63.53
2023-04-26T21:14:15.466Z,63.68
2023-04-26T21:16:43.100Z,63.57
2023-04-26T21:19:11.117Z,63.92
2023-04-26T21:21:39.081Z,63.13
2023-04-26T21:24:07.257Z,63.44
2023-04-26T21:26:36.278Z,63.35
2023-04-26T21:29:04.029Z,63.48
2023-04-26T21:31:31.798Z,63.83
2023-04-26T21:33:59.569Z,63.60
2023-04-26T21:36:28.082Z,63.77
2023-04-26T21:38:55.890Z,63.81
2023-04-26T21:41:25.754Z,64.07
2023-04-26T21:43:55.179Z,63.99
2023-04-26T21:46:22.990Z,64.06
2023-04-26T21:48:50.803Z,64.05
2023-04-26T21:51:19.887Z,64.36
2023-04-26T21:53:47.585Z,63.97
2023-04-26T21:56:15.577Z,64.15
2023-04-26T21:58:43.509Z,64.20
2023-04-26T22:01:14.190Z,64.33
2023-04-26T22:03:42.060Z,64.36
2023-04-26T22:06:11.131Z,64.17
2023-04-26T22:08:38.749Z,64.33
2023-04-26T22:11:06.449Z,64.62
2023-04-26T22:13:34.212Z,64.44
2023-04-26T22:16:03.196Z,64.36
2023-04-26T22:18:32.479Z,64.48
2023-04-26T22:21:00.280Z,64.06
2023-04-26T22:23:27.952Z,64.10
2023-04-26T22:25:57.325Z,64.42
2023-04-26T22:28:25.011Z,64.54
2023-04-26T22:30:52.713Z,64.42
2023-04-26T22:33:20.485Z,64.65
2023-04-26T22:35:49.620Z,64.25
2023-04-26T22:38:17.318Z,64.41
2023-04-26T22:40:44.913Z,64.71
2023-04-26T22:43:12.589Z,64.98
2023-04-26T22:45:40.328Z,64.75
2023-04-26T22:48:08.121Z,64.85
2023-04-26T22:50:35.799Z,65.12
2023-04-26T22:53:05.184Z,64.83
2023-04-26T22:55:32.847Z,65.09
2023-04-26T22:58:00.562Z,65.02
2023-04-26T23:00:28.174Z,64.96
2023-04-26T23:02:55.908Z,65.04
2023-04-26T23:05:23.668Z,65.14
2023-04-26T23:07:51.325Z,65.02
2023-04-26T23:10:20.476Z,65.46
2023-04-26T23:12:49.205Z,64.98
2023-04-26T23:15:16.911Z,64.94
2023-04-26T23:17:45.529Z,65.25
2023-04-26T23:20:13.692Z,64.88
2023-04-26T23:22:41.503Z,64.57
2023-04-26T23:25:10.123Z,64.73
2023-04-26T23:27:39.330Z,65.06
2023-04-26T23:30:08.648Z,65.24
2023-04-26T23:32:36.403Z,64.83
2023-04-26T23:35:04.531Z,65.04
2023-04-26T23:37:32.228Z,64.72
2023-04-26T23:39:59.968Z,65.17
2023-04-26T23:42:27.716Z,65.23
2023-04-26T23:44:56.969Z,65.21
2023-04-26T23:47:24.649Z,65.11
2023-04-26T23:49:52.396Z,64.85
2023-04-26T23:52:20.006Z,65.05
2023-04-26T23:54:47.746Z,65.21
2023-04-26T23:57:15.428Z,65.21
2023-04-26T23:59:43.074Z,64.85
